createdAt,value
2019-01-08T00:03:46.180Z,4.92
2019-01-08T00:06:14.687Z,4.91
2019-01-08T00:08:43.101Z,4.93
2019-01-08T00:11:11.559Z,4.89
2019-01-08T00:13:40.029Z,4.92
2019-01-08T00:16:08.560Z,4.94
2019-01-08T00:18:37.090Z,4.91
2019-01-08T00:21:05.635Z,4.90
2019-01-08T00:23:34.187Z,4.94
2019-01-08T00:26:02.576Z,4.93
2019-01-08T00:28:31.074Z,4.94
2019-01-08T00:30:59.597Z,4.97
2019-01-08T00:33:28.187Z,4.99
2019-01-08T00:35:56.838Z,5.00
2019-01-08T00:38:25.366Z,4.99
2019-01-08T00:40:53.927Z,5.01
2019-01-08T00:43:22.395Z,4.97
2019-01-08T00:45:51.194Z,5.00
2019-01-08T00:48:19.734Z,4.97
2019-01-08T00:50:48.137Z,4.97
2019-01-08T00:53:16.528Z,4.98
2019-01-08T00:55:45.056Z,4.96
2019-01-08T00:58:13.569Z,4.99
2019-01-08T01:00:42.099Z,4.97
2019-01-08T01:03:10.878Z,4.95
2019-01-08T01:05:39.246Z,4.94
2019-01-08T01:08:07.746Z,4.97
2019-01-08T01:10:36.246Z,4.92
2019-01-08T01:13:04.712Z,4.93
2019-01-08T01:18:41.326Z,4.92
2019-01-08T01:21:09.799Z,4.96
2019-01-08T01:23:38.777Z,4.94
2019-01-08T01:26:07.316Z,4.95
2019-01-08T01:28:36.465Z,4.93
2019-01-08T01:31:05.017Z,4.95
2019-01-08T01:33:33.602Z,4.94
2019-01-08T01:36:02.178Z,4.93
2019-01-08T01:38:30.705Z,4.95
2019-01-08T01:40:59.279Z,4.96
2019-01-08T01:43:27.741Z,4.97
2019-01-08T01:45:56.209Z,4.97
2019-01-08T01:48:24.751Z,4.98
2019-01-08T01:51:12.642Z,5.00
2019-01-08T01:53:41.187Z,5.01
2019-01-08T01:56:09.785Z,5.03
2019-01-08T01:58:38.294Z,5.05
2019-01-08T02:01:07.108Z,5.04
2019-01-08T02:03:35.539Z,5.04
2019-01-08T02:06:04.063Z,5.05
2019-01-08T02:08:32.551Z,5.08
2019-01-08T02:11:01.442Z,5.06
2019-01-08T02:13:29.969Z,5.06
2019-01-08T02:15:58.921Z,5.10
2019-01-08T02:18:27.389Z,5.11
2019-01-08T02:20:55.968Z,5.14
2019-01-08T02:23:24.510Z,5.14
2019-01-08T02:25:53.034Z,5.16
2019-01-08T02:28:21.528Z,5.20
2019-01-08T02:30:50.053Z,5.21
2019-01-08T02:33:18.598Z,5.20
2019-01-08T02:35:47.139Z,5.23
2019-01-08T02:38:15.875Z,5.24
2019-01-08T02:40:44.340Z,5.25
2019-01-08T02:43:12.800Z,5.28
2019-01-08T02:45:41.342Z,5.30
2019-01-08T02:48:09.929Z,5.30
2019-01-08T02:50:38.373Z,5.32
2019-01-08T02:53:06.937Z,5.33
2019-01-08T02:55:35.548Z,5.33
2019-01-08T02:58:04.071Z,5.34
2019-01-08T03:00:32.708Z,5.33
2019-01-08T03:03:01.256Z,5.36
2019-01-08T03:05:29.652Z,5.38
2019-01-08T03:07:58.116Z,5.41
2019-01-08T03:10:26.694Z,5.42
2019-01-08T03:12:55.549Z,5.44
2019-01-08T03:15:24.129Z,5.47
2019-01-08T03:17:52.653Z,5.48
2019-01-08T03:20:21.201Z,5.49
2019-01-08T03:22:49.717Z,5.51
2019-01-08T03:25:18.260Z,5.54
2019-01-08T03:27:46.791Z,5.54
2019-01-08T03:30:15.218Z,5.55
2019-01-08T03:32:43.624Z,5.58
2019-01-08T03:35:12.110Z,5.59
2019-01-08T03:37:40.940Z,5.65
2019-01-08T03:40:09.346Z,5.63
2019-01-08T03:42:37.833Z,5.62
2019-01-08T03:45:06.420Z,5.62
2019-01-08T03:47:35.053Z,5.63
2019-01-08T03:53:11.748Z,5.61
2019-01-08T03:55:40.314Z,5.56
2019-01-08T03:58:08.850Z,5.54
2019-01-08T04:00:37.349Z,5.48
2019-01-08T04:03:06.012Z,5.44
2019-01-08T04:05:34.843Z,5.43
2019-01-08T04:08:03.332Z,5.40
2019-01-08T04:10:31.870Z,5.36
2019-01-08T04:13:00.331Z,5.36
2019-01-08T04:15:28.932Z,5.32
2019-01-08T04:17:57.374Z,5.31
2019-01-08T04:20:25.878Z,5.33
2019-01-08T04:22:54.359Z,5.31
2019-01-08T04:25:23.119Z,5.31
2019-01-08T04:27:51.736Z,5.28
2019-01-08T04:30:20.206Z,5.28
2019-01-08T04:32:48.667Z,5.28
2019-01-08T04:35:17.134Z,5.29
2019-01-08T04:37:45.663Z,5.30
2019-01-08T04:40:14.268Z,5.30
2019-01-08T04:42:42.825Z,5.27
2019-01-08T04:45:11.351Z,5.26
2019-01-08T04:47:39.853Z,5.29
2019-01-08T04:50:08.352Z,5.27
2019-01-08T04:52:36.997Z,5.26
2019-01-08T04:55:45.445Z,5.27
2019-01-08T04:58:13.869Z,5.28
2019-01-08T05:00:42.332Z,5.28
2019-01-08T05:03:10.922Z,5.25
2019-01-08T05:05:39.457Z,5.21
2019-01-08T05:08:07.932Z,5.21
2019-01-08T05:10:36.474Z,5.23
2019-01-08T05:13:04.858Z,5.21
2019-01-08T05:15:33.361Z,5.21
2019-01-08T05:18:01.905Z,5.22
2019-01-08T05:20:30.424Z,5.24
2019-01-08T05:22:58.887Z,5.22
2019-01-08T05:25:27.393Z,5.23
2019-01-08T05:27:55.842Z,5.26
2019-01-08T05:30:24.824Z,5.28
2019-01-08T05:32:53.321Z,5.28
2019-01-08T05:35:21.866Z,5.33
2019-01-08T05:37:50.386Z,5.34
2019-01-08T05:40:19.260Z,5.37
2019-01-08T05:42:48.163Z,5.37
2019-01-08T05:45:16.536Z,5.39
2019-01-08T05:47:45.016Z,5.41
2019-01-08T05:50:13.553Z,5.40
2019-01-08T05:52:42.387Z,5.41
2019-01-08T05:55:10.995Z,5.39
2019-01-08T05:57:39.867Z,5.38
2019-01-08T06:00:48.350Z,5.36
2019-01-08T06:03:16.767Z,5.40
2019-01-08T06:05:45.228Z,5.43
2019-01-08T06:08:13.706Z,5.39
2019-01-08T06:10:42.194Z,5.42
2019-01-08T06:13:11.115Z,5.41
2019-01-08T06:15:39.831Z,5.43
2019-01-08T06:18:08.591Z,5.46
2019-01-08T06:20:37.150Z,5.46
2019-01-08T06:23:05.665Z,5.44
2019-01-08T06:25:34.176Z,5.45
2019-01-08T06:28:02.689Z,5.44
2019-01-08T06:30:31.272Z,5.44
2019-01-08T06:32:59.677Z,5.40
2019-01-08T06:35:28.221Z,5.35
2019-01-08T06:37:56.682Z,5.39
2019-01-08T06:40:25.222Z,5.35
2019-01-08T06:42:53.664Z,5.34
2019-01-08T06:45:22.297Z,5.36
2019-01-08T06:47:50.761Z,5.35
2019-01-08T06:50:19.302Z,5.36
2019-01-08T06:52:47.832Z,5.35
2019-01-08T06:55:16.210Z,5.33
2019-01-08T06:57:44.825Z,5.35
2019-01-08T07:00:14.237Z,5.32
2019-01-08T07:02:42.711Z,5.33
2019-01-08T07:05:11.211Z,5.36
2019-01-08T07:07:39.737Z,5.33
2019-01-08T07:10:48.194Z,5.35
2019-01-08T07:13:17.078Z,5.36
2019-01-08T07:15:45.532Z,5.36
2019-01-08T07:18:14.115Z,5.35
2019-01-08T07:20:42.490Z,5.37
2019-01-08T07:23:10.968Z,5.40
2019-01-08T07:25:42.192Z,5.48
2019-01-08T07:28:09.725Z,5.42
2019-01-08T07:30:41.741Z,5.47
2019-01-08T07:33:08.474Z,5.50
2019-01-08T07:35:36.869Z,5.45
2019-01-08T07:38:05.335Z,5.48
2019-01-08T07:40:33.892Z,5.44
2019-01-08T07:43:02.355Z,5.40
2019-01-08T07:45:30.911Z,5.37
2019-01-08T07:47:59.373Z,5.38
2019-01-08T07:50:27.874Z,5.34
2019-01-08T07:52:56.335Z,5.39
2019-01-08T07:55:25.166Z,5.36
2019-01-08T07:57:53.833Z,5.37
2019-01-08T08:00:22.280Z,5.37
2019-01-08T08:02:51.026Z,5.38
2019-01-08T08:05:19.582Z,5.41
2019-01-08T08:07:48.403Z,5.39
2019-01-08T08:10:16.947Z,5.38
2019-01-08T08:12:45.346Z,5.41
2019-01-08T08:15:13.859Z,5.41
2019-01-08T08:17:42.649Z,5.37
2019-01-08T08:20:11.110Z,5.32
2019-01-08T08:22:39.619Z,5.34
2019-01-08T08:25:08.126Z,5.32
2019-01-08T08:27:36.563Z,5.30
2019-01-08T08:30:45.084Z,5.28
2019-01-08T08:33:13.552Z,5.24
2019-01-08T08:35:42.025Z,5.21
2019-01-08T08:38:10.556Z,5.19
2019-01-08T08:40:38.950Z,5.15
2019-01-08T08:43:07.467Z,5.14
2019-01-08T08:45:36.409Z,5.16
2019-01-08T08:48:04.750Z,5.19
2019-01-08T08:50:35.286Z,5.23
2019-01-08T08:53:03.739Z,5.24
2019-01-08T08:55:32.189Z,5.31
2019-01-08T08:58:00.661Z,5.35
2019-01-08T09:00:29.188Z,5.33
2019-01-08T09:02:57.594Z,5.33
2019-01-08T09:05:26.216Z,5.34
2019-01-08T09:07:54.776Z,5.30
2019-01-08T09:10:23.264Z,5.28
2019-01-08T09:12:51.759Z,5.29
2019-01-08T09:15:20.348Z,5.32
2019-01-08T09:17:48.967Z,5.34
2019-01-08T09:20:17.431Z,5.36
2019-01-08T09:22:45.952Z,5.38
2019-01-08T09:25:14.495Z,5.38
2019-01-08T09:27:42.934Z,5.33
2019-01-08T09:30:11.556Z,5.37
2019-01-08T09:32:40.097Z,5.32
2019-01-08T09:35:08.629Z,5.30
2019-01-08T09:37:37.081Z,5.31
2019-01-08T09:40:45.513Z,5.27
2019-01-08T09:43:14.024Z,5.28
2019-01-08T09:45:42.645Z,5.25
2019-01-08T09:48:11.169Z,5.27
2019-01-08T09:50:39.745Z,5.24
2019-01-08T09:53:08.546Z,5.25
2019-01-08T09:55:37.006Z,5.22
2019-01-08T09:58:05.506Z,5.23
2019-01-08T10:00:33.953Z,5.23
2019-01-08T10:03:02.431Z,5.21
2019-01-08T10:05:31.254Z,5.20
2019-01-08T10:07:59.739Z,5.23
2019-01-08T10:10:28.264Z,5.21
2019-01-08T10:12:56.725Z,5.20
2019-01-08T10:15:25.207Z,5.22
2019-01-08T10:17:53.682Z,5.21
2019-01-08T10:20:22.164Z,5.26
2019-01-08T10:22:50.607Z,5.25
2019-01-08T10:25:19.239Z,5.26
2019-01-08T10:27:47.752Z,5.27
2019-01-08T10:30:16.291Z,5.31
2019-01-08T10:32:44.687Z,5.31
2019-01-08T10:35:13.136Z,5.32
2019-01-08T10:37:41.604Z,5.30
2019-01-08T10:40:50.048Z,5.33
2019-01-08T10:43:18.500Z,5.35
2019-01-08T10:45:46.979Z,5.36
2019-01-08T10:48:15.428Z,5.35
2019-01-08T10:50:43.862Z,5.36
2019-01-08T10:53:12.416Z,5.35
2019-01-08T10:55:41.039Z,5.42
2019-01-08T10:58:09.581Z,5.42
2019-01-08T11:00:38.115Z,5.39
2019-01-08T11:03:06.664Z,5.40
2019-01-08T11:05:35.255Z,5.36
2019-01-08T11:08:03.690Z,5.39
2019-01-08T11:10:46.512Z,5.38
2019-01-08T11:13:02.419Z,5.40
2019-01-08T11:15:30.898Z,5.43
2019-01-08T11:17:59.313Z,5.45
2019-01-08T11:20:27.802Z,5.39
2019-01-08T11:22:56.340Z,5.38
2019-01-08T11:25:24.855Z,5.35
2019-01-08T11:27:53.326Z,5.34
2019-01-08T11:30:21.870Z,5.37
2019-01-08T11:32:50.355Z,5.37
2019-01-08T11:35:18.859Z,5.37
2019-01-08T11:37:47.460Z,5.35
2019-01-08T11:40:17.474Z,5.32
2019-01-08T11:42:46.451Z,5.38
2019-01-08T11:45:15.065Z,5.38
2019-01-08T11:47:43.988Z,5.39
2019-01-08T11:50:12.589Z,5.38
2019-01-08T11:52:41.101Z,5.40
2019-01-08T11:55:09.661Z,5.45
2019-01-08T11:57:38.056Z,5.54
2019-01-08T12:00:46.509Z,5.52
2019-01-08T12:03:15.092Z,5.59
2019-01-08T12:05:43.532Z,5.57
2019-01-08T12:08:12.169Z,5.52
2019-01-08T12:10:40.533Z,5.44
2019-01-08T12:13:09.051Z,5.48
2019-01-08T12:15:37.567Z,5.43
2019-01-08T12:18:05.941Z,5.49
2019-01-08T12:20:34.596Z,5.60
2019-01-08T12:23:03.076Z,5.57
2019-01-08T12:25:31.603Z,5.57
2019-01-08T12:28:00.138Z,5.60
2019-01-08T12:30:28.691Z,5.72
2019-01-08T12:32:57.142Z,5.74
2019-01-08T12:35:25.721Z,5.73
2019-01-08T12:37:54.232Z,5.70
2019-01-08T12:40:22.733Z,5.70
2019-01-08T12:42:51.279Z,5.71
2019-01-08T12:45:19.679Z,5.69
2019-01-08T12:47:48.519Z,5.69
2019-01-08T12:50:17.404Z,5.68
2019-01-08T12:52:45.961Z,5.73
2019-01-08T12:55:14.514Z,5.77
2019-01-08T12:57:43.037Z,5.78
2019-01-08T13:00:51.461Z,5.83
2019-01-08T13:03:19.956Z,5.89
2019-01-08T13:05:48.551Z,5.94
2019-01-08T13:08:16.967Z,5.97
2019-01-08T13:10:45.712Z,5.98
2019-01-08T13:13:14.256Z,5.98
2019-01-08T13:15:42.857Z,5.97
2019-01-08T13:18:11.507Z,5.98
2019-01-08T13:20:40.102Z,6.01
2019-01-08T13:23:08.631Z,6.00
2019-01-08T13:25:37.089Z,6.08
2019-01-08T13:28:05.560Z,6.08
2019-01-08T13:30:34.129Z,6.11
2019-01-08T13:33:14.962Z,6.09
2019-01-08T13:35:32.804Z,6.12
2019-01-08T13:38:01.315Z,6.16
2019-01-08T13:40:29.894Z,6.14
2019-01-08T13:42:58.466Z,6.17
2019-01-08T13:45:26.978Z,6.18
2019-01-08T13:50:29.350Z,6.12
2019-01-08T13:52:57.821Z,6.13
2019-01-08T13:55:26.380Z,6.12
2019-01-08T13:57:54.897Z,6.14
2019-01-08T14:00:23.396Z,6.10
2019-01-08T14:02:51.921Z,6.07
2019-01-08T14:05:20.471Z,6.11
2019-01-08T14:08:08.054Z,6.10
2019-01-08T14:10:36.478Z,6.07
2019-01-08T14:13:05.314Z,5.98
2019-01-08T14:15:33.876Z,6.02
2019-01-08T14:18:02.460Z,6.03
2019-01-08T14:20:30.948Z,6.09
2019-01-08T14:22:59.323Z,6.07
2019-01-08T14:25:27.872Z,6.07
2019-01-08T14:27:56.392Z,6.10
2019-01-08T14:30:24.901Z,6.15
2019-01-08T14:32:53.793Z,6.14
2019-01-08T14:35:22.353Z,6.07
2019-01-08T14:37:50.880Z,6.13
2019-01-08T14:40:19.498Z,6.14
2019-01-08T14:42:48.081Z,6.14
2019-01-08T14:45:16.580Z,6.06
2019-01-08T14:47:45.202Z,6.07
2019-01-08T14:50:13.728Z,6.11
2019-01-08T14:52:42.203Z,6.09
2019-01-08T14:55:10.734Z,6.04
2019-01-08T14:57:39.372Z,6.09
2019-01-08T15:00:47.838Z,6.11
2019-01-08T15:03:16.367Z,6.09
2019-01-08T15:05:44.992Z,6.06
2019-01-08T15:08:13.513Z,6.03
2019-01-08T15:10:41.976Z,6.04
2019-01-08T15:13:10.436Z,5.95
2019-01-08T15:15:38.950Z,5.92
2019-01-08T15:18:07.739Z,5.92
2019-01-08T15:20:36.331Z,5.86
2019-01-08T15:25:43.619Z,5.86
2019-01-08T15:28:12.107Z,5.84
2019-01-08T15:30:40.582Z,5.86
2019-01-08T15:33:09.048Z,5.82
2019-01-08T15:35:37.651Z,5.83
2019-01-08T15:38:06.200Z,5.77
2019-01-08T15:40:34.756Z,5.74
2019-01-08T15:43:03.627Z,5.75
2019-01-08T15:45:32.215Z,5.76
2019-01-08T15:48:00.690Z,5.69
2019-01-08T15:50:29.246Z,5.67
2019-01-08T15:52:58.068Z,5.53
2019-01-08T15:55:26.664Z,5.42
2019-01-08T15:57:55.108Z,5.39
2019-01-08T16:00:23.753Z,5.40
2019-01-08T16:02:52.134Z,5.46
2019-01-08T16:05:20.514Z,5.51
2019-01-08T16:07:49.091Z,5.50
2019-01-08T16:10:17.535Z,5.52
2019-01-08T16:12:46.027Z,5.54
2019-01-08T16:15:14.585Z,5.58
2019-01-08T16:17:43.024Z,5.58
2019-01-08T16:20:11.569Z,5.55
2019-01-08T16:22:40.094Z,5.43
2019-01-08T16:25:08.667Z,5.41
2019-01-08T16:27:37.647Z,5.41
2019-01-08T16:30:46.198Z,5.42
2019-01-08T16:33:16.221Z,5.42
2019-01-08T16:35:44.883Z,5.37
2019-01-08T16:38:13.383Z,5.32
2019-01-08T16:40:41.970Z,5.33
2019-01-08T16:43:10.497Z,5.38
2019-01-08T16:45:39.037Z,5.36
2019-01-08T16:48:07.567Z,5.40
2019-01-08T16:50:36.047Z,5.42
2019-01-08T16:53:04.558Z,5.46
2019-01-08T16:55:33.059Z,5.41
2019-01-08T16:58:01.521Z,5.12
2019-01-08T17:00:30.029Z,4.96
2019-01-08T17:02:58.399Z,4.87
2019-01-08T17:05:26.933Z,4.76
2019-01-08T17:07:55.501Z,4.76
2019-01-08T17:10:23.935Z,4.71
2019-01-08T17:12:52.411Z,4.65
2019-01-08T17:15:20.948Z,4.59
2019-01-08T17:17:49.609Z,4.64
2019-01-08T17:20:18.009Z,4.61
2019-01-08T17:22:46.852Z,4.62
2019-01-08T17:25:15.300Z,4.62
2019-01-08T17:27:43.813Z,4.62
2019-01-08T17:30:12.290Z,4.66
2019-01-08T17:32:40.745Z,4.61
2019-01-08T17:35:09.216Z,4.64
2019-01-08T17:37:37.653Z,4.62
2019-01-08T17:40:46.141Z,4.62
2019-01-08T17:43:14.686Z,4.53
2019-01-08T17:45:43.133Z,4.51
2019-01-08T17:48:11.515Z,4.52
2019-01-08T17:50:40.043Z,4.49
2019-01-08T17:53:08.627Z,4.49
2019-01-08T17:55:37.102Z,4.48
2019-01-08T17:58:44.308Z,4.48
2019-01-08T18:01:52.757Z,4.51
2019-01-08T18:04:21.282Z,4.49
2019-01-08T18:06:49.798Z,4.45
2019-01-08T18:09:18.304Z,4.41
2019-01-08T18:11:46.729Z,4.36
2019-01-08T18:14:15.292Z,4.39
2019-01-08T18:16:43.844Z,4.38
2019-01-08T18:19:12.762Z,4.42
2019-01-08T18:21:41.337Z,4.43
2019-01-08T18:24:09.789Z,4.37
2019-01-08T18:26:38.294Z,4.40
2019-01-08T18:29:06.853Z,4.39
2019-01-08T18:31:35.279Z,4.38
2019-01-08T18:34:03.911Z,4.40
2019-01-08T18:36:32.867Z,4.36
2019-01-08T18:39:01.403Z,4.29
2019-01-08T18:41:30.022Z,4.25
2019-01-08T18:43:58.570Z,4.23
2019-01-08T18:46:27.004Z,4.12
2019-01-08T18:48:55.409Z,4.06
2019-01-08T18:51:23.847Z,4.09
2019-01-08T18:54:11.682Z,4.11
2019-01-08T18:56:40.139Z,4.05
2019-01-08T18:59:08.600Z,4.03
2019-01-08T19:01:37.346Z,4.07
2019-01-08T19:04:06.329Z,4.00
2019-01-08T19:06:34.860Z,4.00
2019-01-08T19:09:23.995Z,4.00
2019-01-08T19:11:52.543Z,3.88
2019-01-08T19:15:00.984Z,3.80
2019-01-08T19:17:29.567Z,3.81
2019-01-08T19:19:58.048Z,3.83
2019-01-08T19:22:26.448Z,3.83
2019-01-08T19:24:55.076Z,3.84
2019-01-08T19:27:23.607Z,3.79
2019-01-08T19:29:52.155Z,3.80
2019-01-08T19:32:22.209Z,3.84
2019-01-08T19:34:50.937Z,3.84
2019-01-08T19:37:19.419Z,3.81
2019-01-08T19:39:48.169Z,3.82
2019-01-08T19:42:16.961Z,3.83
2019-01-08T19:44:45.451Z,3.81
2019-01-08T19:47:13.874Z,3.79
2019-01-08T19:49:42.783Z,3.79
2019-01-08T19:52:12.641Z,3.82
2019-01-08T19:54:41.126Z,3.82
2019-01-08T19:57:10.012Z,3.82
2019-01-08T19:59:45.733Z,3.79
2019-01-08T20:02:14.334Z,3.86
2019-01-08T20:04:42.926Z,3.83
2019-01-08T20:07:11.415Z,3.83
2019-01-08T20:10:19.922Z,3.86
2019-01-08T20:12:48.508Z,3.81
2019-01-08T20:15:16.923Z,3.81
2019-01-08T20:17:45.325Z,3.80
2019-01-08T20:20:13.698Z,3.83
2019-01-08T20:22:42.185Z,3.79
2019-01-08T20:25:10.705Z,3.83
2019-01-08T20:27:39.224Z,3.75
2019-01-08T20:30:47.686Z,3.75
2019-01-08T20:33:16.222Z,3.80
2019-01-08T20:35:44.633Z,3.77
2019-01-08T20:38:13.157Z,3.77
2019-01-08T20:40:41.739Z,3.81
2019-01-08T20:43:10.855Z,3.66
2019-01-08T20:45:39.298Z,3.69
2019-01-08T20:48:07.735Z,3.69
2019-01-08T20:50:36.272Z,3.70
2019-01-08T20:53:04.782Z,3.71
2019-01-08T20:55:33.401Z,3.72
2019-01-08T20:58:01.916Z,3.71
2019-01-08T21:00:30.556Z,3.72
2019-01-08T21:02:59.028Z,3.73
2019-01-08T21:05:27.627Z,3.74
2019-01-08T21:07:55.986Z,3.72
2019-01-08T21:10:24.431Z,3.73
2019-01-08T21:12:52.886Z,3.77
2019-01-08T21:15:21.381Z,3.80
2019-01-08T21:17:49.916Z,3.69
2019-01-08T21:20:18.425Z,3.68
2019-01-08T21:22:46.944Z,3.72
2019-01-08T21:25:15.449Z,3.72
2019-01-08T21:27:43.953Z,3.73
2019-01-08T21:30:12.570Z,3.72
2019-01-08T21:32:41.058Z,3.68
2019-01-08T21:35:09.659Z,3.67
2019-01-08T21:37:38.156Z,3.67
2019-01-08T21:40:46.652Z,3.71
2019-01-08T21:43:15.099Z,3.71
2019-01-08T21:45:43.644Z,3.70
2019-01-08T21:48:12.143Z,3.65
2019-01-08T21:50:40.662Z,3.61
2019-01-08T21:53:09.218Z,3.63
2019-01-08T21:55:37.748Z,3.67
2019-01-08T21:58:06.308Z,3.64
2019-01-08T22:00:34.848Z,3.61
2019-01-08T22:03:22.483Z,3.64
2019-01-08T22:05:50.985Z,3.63
2019-01-08T22:08:19.444Z,3.64
2019-01-08T22:10:47.897Z,3.61
2019-01-08T22:13:16.407Z,3.63
2019-01-08T22:16:24.853Z,3.58
2019-01-08T22:18:53.407Z,3.57
2019-01-08T22:21:21.976Z,3.58
2019-01-08T22:23:50.508Z,3.55
2019-01-08T22:26:19.031Z,3.57
2019-01-08T22:28:47.575Z,3.58
2019-01-08T22:31:16.252Z,3.57
2019-01-08T22:33:44.794Z,3.53
2019-01-08T22:36:13.218Z,3.54
2019-01-08T22:38:41.725Z,3.49
2019-01-08T22:41:10.251Z,3.48
2019-01-08T22:43:39.003Z,3.51
2019-01-08T22:46:07.515Z,3.47
2019-01-08T22:48:35.953Z,3.46
2019-01-08T22:51:04.403Z,3.46
2019-01-08T22:53:33.196Z,3.43
2019-01-08T22:56:01.628Z,3.42
2019-01-08T22:58:30.243Z,3.42
2019-01-08T23:01:38.698Z,3.42
2019-01-08T23:06:56.297Z,3.41
2019-01-08T23:09:24.831Z,3.44
2019-01-08T23:11:53.271Z,3.43
2019-01-08T23:14:21.765Z,3.39
2019-01-08T23:16:50.280Z,3.35
2019-01-08T23:19:18.839Z,3.36
2019-01-08T23:21:47.375Z,3.37
2019-01-08T23:24:15.980Z,3.37
2019-01-08T23:26:44.520Z,3.31
2019-01-08T23:29:12.975Z,3.29
2019-01-08T23:31:41.780Z,3.31
2019-01-08T23:34:10.308Z,3.35
2019-01-08T23:36:38.846Z,3.34
2019-01-08T23:39:07.482Z,3.36
2019-01-08T23:41:36.108Z,3.35
2019-01-08T23:44:04.697Z,3.37
2019-01-08T23:46:33.239Z,3.39
2019-01-08T23:49:01.765Z,3.40
2019-01-08T23:51:30.255Z,3.44
2019-01-08T23:54:38.739Z,3.36
2019-01-08T23:57:47.200Z,3.36
